Time;durP1;ratioP1;P1;durP2;ratioP2;P2;SDS_P1;SDS_P2;PMS_P1;PMS_P2;Temp;Humidity;BMP_temperature;BMP_pressure;BME280_temperature;BME280_humidity;BME280_pressure;Samples;Min_cycle;Max_cycle;Signal;HPM_P1;HPM_P2
2022/10/06 00:00:52;;;;;;;2.20;1.10;;;13.40;99.90;14.00;100940.00;;;;4955464;28;101789;-60
2022/10/06 00:03:21;;;;;;;1.00;0.90;;;13.70;99.90;14.30;100946.00;;;;4958886;28;88708;-60
2022/10/06 00:05:50;;;;;;;1.53;1.03;;;14.00;99.90;14.50;100954.00;;;;4957805;28;88600;-60
2022/10/06 00:08:17;;;;;;;2.53;1.20;;;14.30;99.90;14.80;100950.00;;;;4954487;28;88060;-58
2022/10/06 00:10:43;;;;;;;3.03;1.13;;;14.60;99.90;14.90;100960.00;;;;4950877;28;87624;-58
2022/10/06 00:13:09;;;;;;;1.67;1.13;;;14.80;99.90;15.10;100954.00;;;;4949410;28;108011;-59
2022/10/06 00:15:35;;;;;;;2.03;1.23;;;14.90;99.90;15.20;100951.00;;;;4963482;28;118069;-60
2022/10/06 00:18:01;;;;;;;0.77;0.77;;;15.10;99.90;15.30;100954.00;;;;4954548;28;98778;-57
2022/10/06 00:20:27;;;;;;;1.87;1.50;;;15.20;99.90;15.40;100949.00;;;;4953359;28;87233;-60
2022/10/06 00:22:53;;;;;;;1.63;1.23;;;15.30;99.90;15.40;100952.00;;;;4957328;28;88440;-60
2022/10/06 00:25:22;;;;;;;1.10;1.00;;;15.30;99.90;15.40;100956.00;;;;4956228;28;87731;-60
2022/10/06 00:27:50;;;;;;;0.98;0.90;;;15.30;99.90;15.50;100956.00;;;;4954100;28;88667;-60
2022/10/06 00:30:23;;;;;;;2.97;1.05;;;15.40;99.90;15.60;100959.00;;;;4951831;28;87862;-59
2022/10/06 00:32:56;;;;;;;2.78;1.17;;;15.50;99.90;15.60;100955.00;;;;4946989;28;87753;-60
2022/10/06 00:35:24;;;;;;;1.05;0.82;;;15.60;99.90;15.70;100959.00;;;;4966796;28;87958;-58
2022/10/06 00:37:50;;;;;;;1.15;0.95;;;15.60;99.90;15.80;100960.00;;;;4953622;28;106317;-60
2022/10/06 00:40:16;;;;;;;1.80;1.23;;;15.70;99.90;15.80;100958.00;;;;4956168;28;88122;-60
2022/10/06 00:43:00;;;;;;;1.25;1.00;;;15.70;99.90;15.90;100960.00;;;;4952998;28;87739;-58
2022/10/06 00:45:32;;;;;;;0.90;0.80;;;15.80;99.90;15.90;100958.00;;;;4951548;28;108154;-60
2022/10/06 00:48:12;;;;;;;0.95;0.90;;;15.80;99.90;16.00;100959.00;;;;4957284;28;89425;-59
2022/10/06 00:50:38;;;;;;;1.67;0.55;;;15.90;99.90;16.10;100962.00;;;;4948922;28;99537;-59
2022/10/06 00:53:05;;;;;;;0.90;0.90;;;16.00;99.90;16.10;100962.00;;;;4949219;28;108073;-59
2022/10/06 00:55:31;;;;;;;2.15;1.17;;;16.10;99.90;16.20;100960.00;;;;4947625;28;116821;-60
2022/10/06 00:57:58;;;;;;;1.17;0.93;;;16.10;99.90;16.30;100959.00;;;;4950446;28;108931;-59
2022/10/06 01:00:24;;;;;;;0.93;0.85;;;16.20;99.90;16.40;100954.00;;;;4956567;28;87751;-59
2022/10/06 01:03:08;;;;;;;0.98;0.98;;;16.20;99.90;16.50;100966.00;;;;4954330;28;109102;-59
2022/10/06 01:05:46;;;;;;;1.33;1.10;;;16.30;99.90;16.60;100964.00;;;;4967937;28;88235;-60
2022/10/06 01:08:13;;;;;;;1.02;0.90;;;16.40;99.90;16.70;100973.00;;;;4964307;28;88187;-59
2022/10/06 01:10:38;;;;;;;1.52;0.90;;;16.60;99.90;16.80;100978.00;;;;4953326;28;91271;-59
2022/10/06 01:13:05;;;;;;;1.13;1.02;;;16.60;99.90;16.80;100979.00;;;;4959348;28;108639;-59
2022/10/06 01:15:32;;;;;;;0.80;0.80;;;16.70;99.90;16.80;100975.00;;;;4955659;28;88162;-59
2022/10/06 01:18:03;;;;;;;1.55;0.63;;;16.70;99.90;16.90;100973.00;;;;4955959;28;88836;-59
2022/10/06 01:20:30;;;;;;;2.05;1.23;;;16.80;99.90;16.90;100979.00;;;;4955355;28;96460;-59
2022/10/06 01:23:04;;;;;;;1.42;0.82;;;16.80;99.90;17.00;100987.00;;;;4952102;28;87741;-58
2022/10/06 01:25:32;;;;;;;1.50;1.27;;;16.90;99.90;17.00;100981.00;;;;4953181;28;88042;-59
2022/10/06 01:27:59;;;;;;;2.10;1.10;;;16.90;99.90;17.00;100985.00;;;;4952783;28;109902;-59
2022/10/06 01:30:42;;;;;;;1.10;0.98;;;16.90;99.90;17.00;101005.00;;;;4952881;28;87940;-56
2022/10/06 01:33:08;;;;;;;1.38;1.27;;;16.90;99.90;17.10;101003.00;;;;4959707;28;87824;-59
2022/10/06 01:35:34;;;;;;;2.95;1.48;;;16.90;99.90;17.10;100996.00;;;;4945892;28;117240;-58
2022/10/06 01:38:00;;;;;;;0.98;0.82;;;16.90;99.90;17.00;101013.00;;;;4959186;28;87665;-60
2022/10/06 01:40:27;;;;;;;2.47;1.15;;;17.00;99.90;17.00;101011.00;;;;4957096;28;110797;-60
2022/10/06 01:42:54;;;;;;;1.23;0.80;;;16.90;99.90;17.00;101010.00;;;;4959294;28;88759;-58
2022/10/06 01:45:20;;;;;;;0.88;0.70;;;16.90;99.90;17.00;101013.00;;;;4955762;28;104528;-60
2022/10/06 01:47:46;;;;;;;1.05;0.80;;;16.90;99.90;17.00;101019.00;;;;4951648;28;88719;-59
2022/10/06 01:50:13;;;;;;;2.60;0.98;;;16.90;99.90;16.90;101015.00;;;;4969186;28;87528;-59
2022/10/06 01:52:39;;;;;;;1.40;0.93;;;16.90;99.90;16.90;101035.00;;;;4956568;28;87808;-57
2022/10/06 01:55:06;;;;;;;2.30;0.98;;;16.80;99.90;16.80;101033.00;;;;4951886;28;117051;-58
2022/10/06 01:57:37;;;;;;;1.00;0.90;;;16.80;99.90;16.80;101037.00;;;;4953857;28;106623;-59
2022/10/06 02:00:03;;;;;;;1.33;1.15;;;16.70;99.90;16.80;101030.00;;;;4959411;28;86806;-60
2022/10/06 02:02:30;;;;;;;1.52;1.08;;;16.70;99.90;16.70;101035.00;;;;4957523;28;100656;-59
2022/10/06 02:04:56;;;;;;;0.80;0.80;;;16.70;99.90;16.70;101040.00;;;;4955913;28;88842;-60
2022/10/06 02:07:21;;;;;;;1.55;0.80;;;16.60;99.90;16.60;101049.00;;;;4959848;28;117711;-59
2022/10/06 02:09:47;;;;;;;4.85;1.25;;;16.60;99.90;16.60;101038.00;;;;4957820;28;110606;-60
2022/10/06 02:12:13;;;;;;;3.38;1.83;;;16.60;99.90;16.60;101038.00;;;;4948865;28;107731;-59
2022/10/06 02:14:38;;;;;;;3.70;1.00;;;16.50;99.90;16.60;101034.00;;;;4949576;28;115570;-59
2022/10/06 02:17:05;;;;;;;2.13;1.20;;;16.50;99.90;16.60;101051.00;;;;4959103;28;91602;-57
2022/10/06 02:19:31;;;;;;;0.77;0.77;;;16.50;99.90;16.50;101049.00;;;;4955921;28;87815;-59
2022/10/06 02:21:57;;;;;;;0.60;0.60;;;16.50;99.90;16.60;101047.00;;;;4957220;28;109035;-60
2022/10/06 02:24:23;;;;;;;0.73;0.68;;;16.50;99.90;16.60;101051.00;;;;4956066;28;87463;-60
2022/10/06 02:26:48;;;;;;;0.82;0.82;;;16.50;99.90;16.60;101044.00;;;;4967509;28;102228;-60
2022/10/06 02:29:14;;;;;;;4.13;1.20;;;16.50;99.90;16.60;101038.00;;;;4947272;28;110959;-60
2022/10/06 02:31:39;;;;;;;0.80;0.80;;;16.50;99.90;16.60;101052.00;;;;4949586;28;108106;-58
2022/10/06 02:34:05;;;;;;;2.72;1.08;;;16.50;99.90;16.60;101053.00;;;;4946883;28;116762;-57
2022/10/06 02:36:31;;;;;;;0.77;0.70;;;16.60;99.90;16.70;101054.00;;;;4957454;28;116313;-58
2022/10/06 02:38:57;;;;;;;1.95;1.13;;;16.60;99.90;16.70;101050.00;;;;4960112;28;88097;-59
2022/10/06 02:41:23;;;;;;;1.95;1.15;;;16.60;99.90;16.70;101048.00;;;;4952029;28;87960;-59
2022/10/06 02:43:48;;;;;;;2.35;1.10;;;16.60;99.90;16.80;101029.00;;;;4953920;28;110673;-59
2022/10/06 02:46:14;;;;;;;1.05;0.95;;;16.70;99.90;16.80;101032.00;;;;4968240;28;88214;-58
2022/10/06 02:48:40;;;;;;;1.13;1.02;;;16.70;99.90;16.80;101039.00;;;;4944986;28;110156;-59
2022/10/06 02:51:11;;;;;;;1.33;1.10;;;16.70;99.90;16.80;101035.00;;;;4946600;28;87720;-60
2022/10/06 02:53:37;;;;;;;1.00;0.65;;;16.70;99.90;16.80;101033.00;;;;4941674;28;90582;-58
2022/10/06 02:56:14;;;;;;;0.95;0.85;;;16.70;99.90;16.80;101037.00;;;;4959725;28;88667;-58
2022/10/06 02:58:41;;;;;;;2.22;1.50;;;16.70;99.90;16.70;101042.00;;;;4957738;28;87924;-58
2022/10/06 03:01:11;;;;;;;1.17;0.80;;;16.70;99.90;16.70;101051.00;;;;4957542;28;87909;-58
2022/10/06 03:03:38;;;;;;;3.97;0.80;;;16.70;99.90;16.70;101063.00;;;;4953874;28;87953;-58
2022/10/06 03:06:23;;;;;;;1.77;0.85;;;16.60;99.90;16.70;101070.00;;;;4961380;28;88303;-58
2022/10/06 03:08:59;;;;;;;1.75;1.08;;;16.60;99.90;16.60;101072.00;;;;4952709;28;87697;-59
2022/10/06 03:11:29;;;;;;;2.08;0.85;;;16.60;99.90;16.60;101080.00;;;;4953281;28;87817;-59
2022/10/06 03:13:55;;;;;;;1.00;1.00;;;16.60;99.90;16.60;101078.00;;;;4954855;28;87999;-59
2022/10/06 03:16:28;;;;;;;1.08;0.90;;;16.50;99.90;16.60;101087.00;;;;4954812;28;87931;-59
2022/10/06 03:18:55;;;;;;;1.80;1.10;;;16.50;99.90;16.60;101083.00;;;;4955166;28;87663;-58
2022/10/06 03:21:24;;;;;;;1.27;1.17;;;16.50;99.90;16.60;101090.00;;;;4956166;28;109183;-56
2022/10/06 03:23:52;;;;;;;1.83;1.27;;;16.50;99.90;16.60;101086.00;;;;4968849;28;88251;-60
2022/10/06 03:26:21;;;;;;;1.15;0.80;;;16.50;99.90;16.60;101100.00;;;;4948690;28;88688;-59
2022/10/06 03:28:47;;;;;;;1.23;1.08;;;16.50;99.90;16.60;101106.00;;;;4947611;28;102226;-59
2022/10/06 03:31:14;;;;;;;2.13;1.30;;;16.50;99.90;16.60;101108.00;;;;4948287;28;87711;-59
2022/10/06 03:33:40;;;;;;;1.13;0.77;;;16.50;99.90;16.60;101120.00;;;;4944029;28;88340;-60
2022/10/06 03:36:12;;;;;;;1.23;1.13;;;16.50;99.90;16.60;101112.00;;;;4959081;28;88188;-59
2022/10/06 03:38:38;;;;;;;1.50;1.35;;;16.50;99.90;16.60;101126.00;;;;4967995;28;87167;-59
2022/10/06 03:41:10;;;;;;;4.78;1.00;;;16.50;99.90;16.60;101118.00;;;;4953823;28;88255;-58
2022/10/06 03:43:37;;;;;;;0.93;0.82;;;16.50;99.90;16.60;101133.00;;;;4957630;28;88396;-60
2022/10/06 03:46:04;;;;;;;1.20;1.10;;;16.50;99.90;16.60;101123.00;;;;4968889;28;89107;-58
2022/10/06 03:48:33;;;;;;;1.33;1.10;;;16.50;99.90;16.60;101140.00;;;;4950138;28;89853;-58
2022/10/06 03:51:26;;;;;;;1.10;1.00;;;16.50;99.90;16.60;101148.00;;;;4942494;28;88180;-59
2022/10/06 03:53:52;;;;;;;5.03;0.95;;;16.50;99.90;16.60;101139.00;;;;4943204;28;88738;-59
2022/10/06 03:56:30;;;;;;;0.80;0.80;;;16.50;99.90;16.60;101141.00;;;;4957194;28;109169;-60
2022/10/06 03:59:00;;;;;;;1.60;1.25;;;16.60;99.90;16.70;101138.00;;;;4954275;28;87839;-58
2022/10/06 04:01:33;;;;;;;1.23;1.10;;;16.50;99.90;16.80;101152.00;;;;4968155;28;87984;-58
2022/10/06 04:04:00;;;;;;;0.85;0.70;;;16.70;99.90;16.80;101150.00;;;;4950132;28;87975;-58
2022/10/06 04:06:28;;;;;;;2.47;1.35;;;16.70;99.90;16.90;101151.00;;;;4946068;28;87972;-57
2022/10/06 04:08:54;;;;;;;1.48;0.90;;;16.70;99.90;16.90;101154.00;;;;4946686;28;104506;-59
2022/10/06 04:11:30;;;;;;;2.28;0.90;;;16.80;99.90;16.90;101164.00;;;;4944927;28;88794;-58
2022/10/06 04:13:59;;;;;;;3.50;0.93;;;16.70;99.90;17.00;101164.00;;;;4942889;28;88621;-59
2022/10/06 04:16:28;;;;;;;1.42;1.33;;;16.90;99.90;17.00;101164.00;;;;4953478;28;88522;-59
2022/10/06 04:18:59;;;;;;;1.42;0.98;;;16.90;99.90;17.10;101168.00;;;;4953956;28;87940;-59
2022/10/06 04:21:26;;;;;;;1.10;1.00;;;16.90;99.90;17.10;101183.00;;;;4964792;28;87796;-57
2022/10/06 04:23:57;;;;;;;1.33;0.93;;;17.00;99.90;17.10;101165.00;;;;4949846;28;101052;-59
2022/10/06 04:26:26;;;;;;;0.77;0.77;;;17.00;99.90;17.20;101176.00;;;;4948048;28;108696;-59
2022/10/06 04:28:51;;;;;;;1.10;1.00;;;17.00;99.90;17.20;101179.00;;;;4946551;28;87242;-59
2022/10/06 04:31:19;;;;;;;1.02;0.68;;;17.10;99.90;17.20;101179.00;;;;4948852;28;87708;-58
2022/10/06 04:33:47;;;;;;;0.90;0.90;;;17.10;99.90;17.30;101194.00;;;;4946928;28;88375;-59
2022/10/06 04:36:22;;;;;;;1.38;0.45;;;17.20;99.90;17.30;101189.00;;;;4956260;28;94061;-59
2022/10/06 04:38:52;;;;;;;1.58;0.90;;;17.20;99.90;17.30;101187.00;;;;4965466;28;88906;-59
2022/10/06 04:41:19;;;;;;;1.02;0.95;;;17.20;99.90;17.30;101193.00;;;;4946064;28;87479;-58
2022/10/06 04:43:49;;;;;;;1.33;0.75;;;17.20;99.90;17.30;101194.00;;;;4948240;28;89055;-59
2022/10/06 04:46:17;;;;;;;1.95;0.70;;;17.20;99.90;17.30;101191.00;;;;4952306;28;88900;-58
2022/10/06 04:48:42;;;;;;;0.68;0.68;;;17.20;99.90;17.30;101199.00;;;;4948928;28;87842;-59
2022/10/06 04:51:14;;;;;;;2.92;1.27;;;17.20;99.90;17.30;101193.00;;;;4949348;28;108426;-59
2022/10/06 04:53:43;;;;;;;3.50;0.95;;;17.20;99.90;17.30;101204.00;;;;4951350;28;109527;-59
2022/10/06 04:56:13;;;;;;;0.40;0.40;;;17.20;99.90;17.30;101207.00;;;;4939647;28;87875;-59
2022/10/06 04:58:42;;;;;;;3.53;0.77;;;17.30;99.90;17.30;101198.00;;;;4950794;28;87825;-59
2022/10/06 05:01:20;;;;;;;0.90;0.75;;;17.20;99.90;17.30;101207.00;;;;4949212;28;94567;-59
2022/10/06 05:03:48;;;;;;;1.40;0.95;;;17.20;99.90;17.30;101200.00;;;;4947970;28;88965;-59
2022/10/06 05:06:21;;;;;;;1.63;0.88;;;17.20;99.90;17.30;101211.00;;;;4950411;28;88894;-59
2022/10/06 05:09:00;;;;;;;0.93;0.75;;;17.20;99.90;17.20;101221.00;;;;4952227;28;87697;-59
2022/10/06 05:11:26;;;;;;;0.98;0.88;;;17.20;99.90;17.20;101229.00;;;;4955385;28;88015;-59
2022/10/06 05:13:55;;;;;;;0.55;0.40;;;17.20;99.90;17.30;101249.00;;;;4945572;28;87786;-59
2022/10/06 05:16:22;;;;;;;0.80;0.70;;;17.20;99.90;17.30;101265.00;;;;4942265;28;88230;-59
2022/10/06 05:18:48;;;;;;;0.77;0.77;;;17.20;99.90;17.30;101261.00;;;;4959803;28;87179;-59
2022/10/06 05:21:21;;;;;;;3.00;1.27;;;17.20;99.90;17.30;101276.00;;;;4953752;28;109206;-59
2022/10/06 05:23:47;;;;;;;1.90;0.73;;;17.20;99.90;17.30;101270.00;;;;4949676;28;87807;-58
2022/10/06 05:26:20;;;;;;;2.08;0.85;;;17.20;99.90;17.40;101301.00;;;;4947539;28;116880;-59
2022/10/06 05:28:46;;;;;;;0.75;0.70;;;17.30;99.90;17.40;101307.00;;;;4951409;28;87534;-60
2022/10/06 05:31:20;;;;;;;1.60;1.05;;;17.30;99.90;17.40;101306.00;;;;4954403;28;94148;-59
2022/10/06 05:33:47;;;;;;;1.48;0.75;;;17.30;99.90;17.40;101327.00;;;;4952530;28;88220;-59
2022/10/06 05:36:23;;;;;;;0.80;0.52;;;17.30;99.90;17.40;101318.00;;;;4944084;28;104326;-59
2022/10/06 05:38:49;;;;;;;0.60;0.60;;;17.40;99.90;17.40;101327.00;;;;4952458;28;88119;-59
2022/10/06 05:41:20;;;;;;;0.95;0.68;;;17.30;99.90;17.40;101336.00;;;;4950819;28;87731;-59
2022/10/06 05:43:46;;;;;;;0.55;0.55;;;17.30;99.90;17.30;101337.00;;;;4948314;28;88476;-57
2022/10/06 05:46:18;;;;;;;0.68;0.68;;;17.20;99.90;17.30;101341.00;;;;4949862;28;87958;-59
2022/10/06 05:48:49;;;;;;;0.50;0.50;;;17.20;99.90;17.30;101351.00;;;;4951340;28;87760;-58
2022/10/06 05:51:17;;;;;;;1.42;0.68;;;17.20;99.90;17.20;101367.00;;;;4943523;28;88736;-59
2022/10/06 05:53:43;;;;;;;0.35;0.30;;;17.20;99.90;17.20;101366.00;;;;4947035;28;107106;-59
2022/10/06 05:56:16;;;;;;;0.75;0.40;;;17.10;99.90;17.20;101367.00;;;;4966504;28;87812;-59
2022/10/06 05:58:45;;;;;;;0.65;0.30;;;17.10;99.90;17.10;101377.00;;;;4951100;28;88276;-59
2022/10/06 06:01:17;;;;;;;0.43;0.43;;;17.00;99.90;17.10;101383.00;;;;4948423;28;87848;-56
2022/10/06 06:03:48;;;;;;;0.20;0.20;;;17.00;99.90;17.10;101396.00;;;;4946950;28;110295;-59
2022/10/06 06:06:21;;;;;;;0.73;0.50;;;17.00;99.90;17.00;101389.00;;;;4951027;28;87823;-59
2022/10/06 06:08:51;;;;;;;0.70;0.52;;;16.90;99.90;17.00;101408.00;;;;4947178;28;87114;-59
2022/10/06 06:11:17;;;;;;;0.25;0.20;;;16.90;99.90;16.90;101409.00;;;;4942001;28;98384;-58
2022/10/06 06:13:43;;;;;;;0.40;0.40;;;16.90;99.90;16.90;101419.00;;;;4943353;28;88028;-58
2022/10/06 06:16:14;;;;;;;0.43;0.20;;;16.80;99.90;16.90;101435.00;;;;4965548;28;116352;-59
2022/10/06 06:18:40;;;;;;;0.30;0.13;;;16.80;99.90;16.80;101427.00;;;;4955791;28;96756;-59
2022/10/06 06:21:08;;;;;;;0.40;0.30;;;16.80;99.90;16.80;101437.00;;;;4956177;28;88107;-59
2022/10/06 06:23:37;;;;;;;0.20;0.20;;;16.70;99.90;16.80;101449.00;;;;4949048;28;88411;-60
2022/10/06 06:26:10;;;;;;;1.88;0.52;;;16.70;99.90;16.70;101436.00;;;;4949243;28;88693;-59
2022/10/06 06:28:36;;;;;;;0.10;0.10;;;16.70;99.90;16.70;101474.00;;;;4948788;28;95744;-59
2022/10/06 06:31:21;;;;;;;0.63;0.38;;;16.60;99.90;16.60;101473.00;;;;4953997;28;87873;-58
2022/10/06 06:33:50;;;;;;;0.38;0.38;;;16.60;99.90;16.50;101483.00;;;;4962141;28;87425;-58
2022/10/06 06:36:19;;;;;;;0.22;0.22;;;16.50;99.90;16.40;101490.00;;;;4943287;28;87972;-58
2022/10/06 06:38:50;;;;;;;0.10;0.10;;;16.40;99.90;16.40;101492.00;;;;4951428;28;87596;-57
2022/10/06 06:41:26;;;;;;;1.45;0.20;;;16.30;99.90;16.30;101495.00;;;;4958976;28;89231;-59
2022/10/06 06:43:52;;;;;;;0.20;0.20;;;16.30;99.90;16.20;101508.00;;;;4986065;28;88901;-59
2022/10/06 06:46:22;;;;;;;0.10;0.10;;;16.20;99.90;16.10;101519.00;;;;4983905;28;88539;-59
2022/10/06 06:48:54;;;;;;;0.08;0.08;;;16.10;99.90;16.00;101522.00;;;;4981392;28;86926;-59
2022/10/06 06:51:22;;;;;;;3.13;0.22;;;16.00;99.90;16.00;101526.00;;;;4951867;28;87957;-59
2022/10/06 06:53:52;;;;;;;0.10;0.10;;;15.90;99.90;15.90;101520.00;;;;4965902;28;88737;-59
2022/10/06 06:56:22;;;;;;;0.08;0.08;;;15.90;99.90;15.90;101542.00;;;;4964795;28;88234;-58
2022/10/06 06:58:49;;;;;;;0.10;0.10;;;15.80;99.90;15.80;101543.00;;;;4948510;28;87438;-58
2022/10/06 07:01:18;;;;;;;0.08;0.08;;;15.80;99.90;15.80;101547.00;;;;4949578;28;87877;-59
2022/10/06 07:04:02;;;;;;;0.00;0.00;;;15.80;99.90;15.80;101546.00;;;;4951713;28;87816;-58
2022/10/06 07:06:29;;;;;;;1.83;0.15;;;15.70;99.90;15.80;101560.00;;;;4951058;28;116800;-59
2022/10/06 07:08:57;;;;;;;0.10;0.10;;;15.70;99.90;15.80;101563.00;;;;4950840;28;88043;-59
2022/10/06 07:11:30;;;;;;;0.10;0.10;;;15.70;99.90;15.80;101567.00;;;;4948791;28;87674;-58
2022/10/06 07:14:11;;;;;;;0.50;0.30;;;15.70;99.90;15.70;101579.00;;;;4950838;28;109670;-59
2022/10/06 07:25:11;;;;;;;0.10;0.10;;;15.60;99.90;15.70;101626.00;;;;4948612;28;87076;-59
2022/10/06 07:27:49;;;;;;;0.32;0.32;;;15.60;99.90;15.70;101617.00;;;;4953931;28;89794;-60
2022/10/06 07:30:23;;;;;;;0.10;0.10;;;15.60;99.90;15.60;101615.00;;;;4948779;28;87546;-60
2022/10/06 07:32:50;;;;;;;0.20;0.20;;;15.60;99.90;15.60;101626.00;;;;4941485;28;94553;-58
2022/10/06 07:35:19;;;;;;;0.73;0.40;;;15.50;99.90;15.50;101622.00;;;;4946661;28;88186;-58
2022/10/06 07:37:45;;;;;;;0.20;0.20;;;15.50;99.90;15.50;101628.00;;;;4949838;28;88736;-59
2022/10/06 07:40:11;;;;;;;0.20;0.20;;;15.50;99.90;15.50;101627.00;;;;4948589;28;97075;-59
2022/10/06 07:42:48;;;;;;;0.30;0.20;;;15.50;99.90;15.50;101636.00;;;;4947958;28;109339;-59
2022/10/06 07:45:37;;;;;;;0.38;0.32;;;15.40;99.90;15.50;101636.00;;;;4948039;28;88676;-59
2022/10/06 07:48:09;;;;;;;0.40;0.30;;;15.50;99.90;15.60;101640.00;;;;4946738;28;87828;-60
2022/10/06 07:50:38;;;;;;;0.13;0.13;;;15.50;99.90;15.60;101645.00;;;;4951357;28;87207;-60
2022/10/06 07:53:07;;;;;;;0.75;0.65;;;15.50;99.90;15.60;101648.00;;;;4950730;28;87758;-59
2022/10/06 07:55:40;;;;;;;0.40;0.32;;;15.50;99.90;15.50;101648.00;;;;4945387;28;88137;-59
2022/10/06 07:58:21;;;;;;;0.60;0.28;;;15.50;99.90;15.50;101654.00;;;;4947776;28;89044;-60
2022/10/06 08:00:47;;;;;;;4.28;0.60;;;15.50;99.90;15.50;101659.00;;;;4964222;28;87918;-59
2022/10/06 08:03:16;;;;;;;0.68;0.25;;;15.50;99.90;15.60;101658.00;;;;4950723;28;88187;-59
2022/10/06 08:05:46;;;;;;;0.25;0.20;;;15.50;99.90;15.60;101665.00;;;;4950210;28;89619;-58
2022/10/06 08:08:13;;;;;;;0.32;0.30;;;15.50;99.90;15.70;101669.00;;;;4943530;28;87835;-58
2022/10/06 08:10:40;;;;;;;0.10;0.10;;;15.60;99.90;15.80;101682.00;;;;4950117;28;87866;-59
2022/10/06 08:13:06;;;;;;;4.25;0.52;;;15.60;99.90;15.80;101694.00;;;;4947997;28;99443;-58
2022/10/06 08:15:33;;;;;;;0.43;0.40;;;15.70;99.90;15.80;101698.00;;;;4943908;28;106586;-59
2022/10/06 08:18:00;;;;;;;0.47;0.45;;;15.60;99.90;15.90;101704.00;;;;4947712;28;87747;-60
2022/10/06 08:20:26;;;;;;;0.50;0.20;;;15.80;99.90;16.00;101709.00;;;;4948153;28;88005;-58
2022/10/06 08:22:53;;;;;;;0.25;0.25;;;15.90;99.90;16.00;101706.00;;;;4951535;28;88884;-60
2022/10/06 08:25:19;;;;;;;0.57;0.20;;;15.90;99.90;16.10;101709.00;;;;4947425;28;118282;-57
2022/10/06 08:27:45;;;;;;;0.80;0.15;;;16.00;99.90;16.10;101710.00;;;;4948956;28;116767;-59
2022/10/06 08:30:11;;;;;;;0.55;0.50;;;16.00;99.90;16.20;101712.00;;;;4943516;28;110875;-58
2022/10/06 08:32:37;;;;;;;0.47;0.47;;;16.10;99.90;16.30;101711.00;;;;4949399;28;87729;-60
2022/10/06 08:35:04;;;;;;;0.60;0.30;;;16.20;99.90;16.30;101714.00;;;;4945089;28;89052;-59
2022/10/06 08:37:30;;;;;;;0.47;0.47;;;16.20;99.90;16.40;101720.00;;;;4945965;28;87880;-59
2022/10/06 08:39:56;;;;;;;1.05;0.38;;;16.20;99.90;16.50;101726.00;;;;4950668;28;89506;-59
2022/10/06 08:42:47;;;;;;;0.68;0.40;;;16.30;99.90;16.50;101727.00;;;;4949084;28;107539;-59
2022/10/06 08:45:34;;;;;;;0.17;0.13;;;16.40;99.90;16.60;101722.00;;;;4947789;28;88839;-60
2022/10/06 08:48:09;;;;;;;0.30;0.30;;;16.50;99.90;16.70;101723.00;;;;4962557;28;88939;-60
2022/10/06 08:51:23;;;;;;;0.65;0.50;;;16.60;99.90;16.70;101741.00;;;;4946931;28;87719;-59
2022/10/06 08:54:04;;;;;;;2.50;0.73;;;16.60;99.90;16.80;101746.00;;;;4937273;28;88654;-59
2022/10/06 08:57:04;;;;;;;0.25;0.25;;;16.70;99.90;16.90;101751.00;;;;4949781;28;88635;-60
2022/10/06 08:59:34;;;;;;;2.72;0.35;;;16.70;99.90;17.00;101750.00;;;;4948848;28;88647;-59
2022/10/06 09:02:04;;;;;;;0.88;0.75;;;16.80;99.90;17.10;101756.00;;;;4966019;28;94722;-59
2022/10/06 09:04:32;;;;;;;0.77;0.55;;;16.90;99.90;17.20;101748.00;;;;4947353;28;87603;-59
2022/10/06 09:07:06;;;;;;;0.32;0.32;;;17.00;99.90;17.30;101747.00;;;;4946634;28;87440;-59
2022/10/06 09:09:53;;;;;;;0.28;0.28;;;17.20;99.90;17.60;101745.00;;;;4948559;28;87735;-59
2022/10/06 09:12:51;;;;;;;1.23;0.43;;;17.30;99.90;18.10;101763.00;;;;4946627;28;87881;-58
2022/10/06 09:15:33;;;;;;;0.63;0.30;;;17.80;99.90;18.40;101763.00;;;;4946123;28;100356;-60
2022/10/06 09:18:30;;;;;;;0.35;0.30;;;18.10;99.60;18.60;101764.00;;;;4950504;28;88670;-59
2022/10/06 09:21:01;;;;;;;0.95;0.50;;;18.40;98.20;18.90;101766.00;;;;4947428;28;88661;-59
2022/10/06 09:23:48;;;;;;;1.17;0.43;;;18.70;96.90;19.10;101764.00;;;;4949003;28;87800;-59
2022/10/06 09:26:21;;;;;;;0.93;0.35;;;18.90;96.20;19.30;101779.00;;;;4946589;28;87908;-60
2022/10/06 09:28:48;;;;;;;4.78;0.93;;;19.10;94.50;19.50;101768.00;;;;4947934;28;88983;-59
2022/10/06 09:31:36;;;;;;;1.67;0.45;;;19.30;94.10;19.50;101774.00;;;;4947594;28;88100;-58
2022/10/06 09:34:22;;;;;;;0.80;0.30;;;19.40;92.50;19.40;101789.00;;;;4947718;28;88354;-60
2022/10/06 09:37:09;;;;;;;0.98;0.25;;;19.30;90.70;19.10;101784.00;;;;4967724;28;88185;-59
2022/10/06 09:39:41;;;;;;;0.30;0.30;;;19.20;90.20;19.00;101788.00;;;;4947268;28;88803;-60
2022/10/06 09:42:34;;;;;;;0.30;0.28;;;19.00;90.10;18.80;101790.00;;;;4946545;28;89022;-59
2022/10/06 09:44:59;;;;;;;0.80;0.30;;;18.80;90.20;18.60;101785.00;;;;4949123;28;87837;-59
2022/10/06 09:47:31;;;;;;;0.35;0.35;;;18.60;90.00;18.60;101799.00;;;;4947356;28;99166;-60
2022/10/06 09:50:11;;;;;;;2.05;0.60;;;18.50;90.10;18.60;101798.00;;;;4948872;28;88974;-60
2022/10/06 09:53:03;;;;;;;1.02;0.63;;;18.40;90.10;18.50;101797.00;;;;4950810;28;89016;-59
2022/10/06 09:55:37;;;;;;;0.47;0.22;;;18.40;90.00;18.60;101797.00;;;;4951571;28;88114;-60
2022/10/06 09:58:36;;;;;;;0.43;0.43;;;18.40;89.40;18.60;101807.00;;;;4956447;28;87722;-59
2022/10/06 10:01:07;;;;;;;5.38;0.50;;;18.50;87.80;18.70;101807.00;;;;4955164;28;87299;-60
2022/10/06 10:03:40;;;;;;;0.60;0.38;;;18.60;87.90;18.90;101809.00;;;;4949032;28;88092;-59
2022/10/06 10:06:07;;;;;;;7.20;0.55;;;18.70;88.60;19.20;101819.00;;;;4951510;28;87822;-60
2022/10/06 10:08:33;;;;;;;0.25;0.25;;;18.90;88.20;19.70;101806.00;;;;4952570;28;89199;-59
2022/10/06 10:12:23;;;;;;;0.50;0.40;;;19.30;87.40;20.20;101812.00;;;;4950248;28;116848;-59
2022/10/06 10:13:58;;;;;;;0.40;0.40;;;19.80;84.70;20.80;101823.00;;;;4948520;28;88064;-59
2022/10/06 10:16:33;;;;;;;1.20;0.52;;;20.30;83.60;21.40;101823.00;;;;4950970;28;87609;-60
2022/10/06 10:19:00;;;;;;;0.77;0.70;;;20.80;80.50;21.80;101821.00;;;;4952316;28;87768;-60
2022/10/06 10:21:34;;;;;;;2.53;0.45;;;21.20;78.00;21.90;101824.00;;;;4954468;28;88663;-59
2022/10/06 10:24:04;;;;;;;0.17;0.17;;;21.60;75.30;21.90;101830.00;;;;4952257;28;90744;-59
2022/10/06 10:27:22;;;;;;;0.57;0.25;;;21.60;74.40;21.80;101832.00;;;;4950013;28;87090;-60
2022/10/06 10:30:14;;;;;;;3.83;0.45;;;21.60;72.60;22.10;101840.00;;;;4945869;28;87944;-60
2022/10/06 10:33:10;;;;;;;0.60;0.52;;;21.70;72.50;22.40;101835.00;;;;4947822;28;89809;-59
2022/10/06 10:35:41;;;;;;;0.20;0.20;;;22.00;71.10;22.60;101835.00;;;;4954682;28;106848;-60
2022/10/06 10:38:18;;;;;;;2.58;0.43;;;22.30;67.90;22.50;101839.00;;;;4951383;28;88069;-59
2022/10/06 10:40:50;;;;;;;3.20;0.43;;;22.30;66.00;22.60;101844.00;;;;4949082;28;100500;-59
2022/10/06 10:43:30;;;;;;;0.28;0.28;;;22.30;66.90;22.80;101847.00;;;;4954537;28;89279;-60
2022/10/06 10:46:29;;;;;;;0.40;0.40;;;22.50;66.70;22.60;101847.00;;;;4952204;28;87902;-59
2022/10/06 10:49:11;;;;;;;2.15;0.30;;;22.50;63.90;22.40;101854.00;;;;4976596;27;94518;-60
2022/10/06 10:52:11;;;;;;;2.22;0.30;;;22.30;63.90;22.00;101861.00;;;;4952599;28;88226;-59
2022/10/06 10:54:52;;;;;;;6.25;0.38;;;22.00;63.80;21.40;101863.00;;;;4946194;28;87155;-59
2022/10/06 10:57:21;;;;;;;1.08;0.70;;;21.50;64.10;20.90;101860.00;;;;4954486;28;88102;-60
2022/10/06 11:00:14;;;;;;;0.80;0.52;;;21.00;64.60;20.50;101848.00;;;;4952375;28;87648;-59
2022/10/06 11:02:40;;;;;;;0.50;0.22;;;20.60;66.20;20.30;101849.00;;;;4948191;28;88752;-60
2022/10/06 11:05:27;;;;;;;1.85;0.57;;;20.30;67.40;20.10;101840.00;;;;4951412;28;89036;-59
2022/10/06 11:08:24;;;;;;;0.17;0.17;;;20.10;67.60;20.30;101855.00;;;;4951498;28;88100;-59
2022/10/06 11:10:57;;;;;;;0.40;0.38;;;20.10;68.30;20.50;101862.00;;;;4948421;28;88095;-59
2022/10/06 11:13:34;;;;;;;1.33;0.35;;;20.20;67.00;20.50;101854.00;;;;4949693;28;87814;-59